createdAt,value
2022-08-10T00:00:24.374Z,56.92
2022-08-10T00:03:53.057Z,56.97
2022-08-10T00:07:20.775Z,57.04
2022-08-10T00:10:47.829Z,57.17
2022-08-10T00:14:14.987Z,57.26
2022-08-10T00:17:42.516Z,57.23
2022-08-10T00:21:11.190Z,57.33
2022-08-10T00:24:43.036Z,57.45
2022-08-10T00:28:10.571Z,57.32
2022-08-10T00:31:57.679Z,57.51
2022-08-10T00:35:24.744Z,57.47
2022-08-10T00:38:51.821Z,57.50
2022-08-10T00:42:19.545Z,57.57
2022-08-10T00:45:46.801Z,57.76
2022-08-10T00:49:27.043Z,57.99
2022-08-10T00:52:54.612Z,58.04
2022-08-10T00:57:14.983Z,58.13
2022-08-10T01:00:12.612Z,58.26
2022-08-10T01:04:36.135Z,58.33
2022-08-10T01:07:39.731Z,58.55
2022-08-10T01:12:37.441Z,58.72
2022-08-10T01:15:03.289Z,58.80
2022-08-10T01:18:40.134Z,58.87
2022-08-10T01:22:29.361Z,58.81
2022-08-10T01:26:30.721Z,58.92
2022-08-10T01:30:04.010Z,59.06
2022-08-10T01:34:02.332Z,59.14
2022-08-10T01:37:32.708Z,59.08
2022-08-10T01:41:04.635Z,59.23
2022-08-10T01:44:35.659Z,59.34
2022-08-10T01:48:23.360Z,59.52
2022-08-10T01:52:02.514Z,59.76
2022-08-10T01:55:30.893Z,59.79
2022-08-10T01:59:00.104Z,59.92
2022-08-10T02:02:28.738Z,60.06
2022-08-10T02:05:57.831Z,60.08
2022-08-10T02:09:27.784Z,60.17
2022-08-10T02:12:57.747Z,60.01
2022-08-10T02:16:27.045Z,60.15
2022-08-10T02:19:56.997Z,60.11
2022-08-10T02:23:27.208Z,60.19
2022-08-10T02:26:56.398Z,60.18
2022-08-10T02:30:28.057Z,60.33
2022-08-10T02:33:59.484Z,60.22
2022-08-10T02:37:29.575Z,60.18
2022-08-10T02:42:18.826Z,60.32
2022-08-10T02:45:22.448Z,60.41
2022-08-10T02:48:43.645Z,60.58
2022-08-10T02:52:18.395Z,60.42
2022-08-10T02:55:49.409Z,60.62
2022-08-10T02:59:23.549Z,60.71
2022-08-10T03:02:52.699Z,60.81
2022-08-10T03:06:26.975Z,60.82
2022-08-10T03:09:55.282Z,60.95
2022-08-10T03:13:24.092Z,60.94
2022-08-10T03:16:52.766Z,60.89
2022-08-10T03:20:37.155Z,61.06
2022-08-10T03:24:21.172Z,61.04
2022-08-10T03:27:55.215Z,61.16
2022-08-10T03:31:22.475Z,61.39
2022-08-10T03:34:50.253Z,61.43
2022-08-10T03:38:17.580Z,61.43
2022-08-10T03:41:53.625Z,61.31
2022-08-10T03:45:25.152Z,61.45
2022-08-10T03:48:57.979Z,61.65
2022-08-10T03:52:28.842Z,61.66
2022-08-10T03:56:28.001Z,61.71
2022-08-10T03:59:45.082Z,61.88
2022-08-10T04:03:12.888Z,62.02
2022-08-10T04:06:40.760Z,61.93
2022-08-10T04:10:08.497Z,62.12
2022-08-10T04:13:42.039Z,62.27
2022-08-10T04:17:13.789Z,62.26
2022-08-10T04:20:46.584Z,62.44
2022-08-10T04:24:26.930Z,62.50
2022-08-10T04:28:01.374Z,62.53
2022-08-10T04:31:33.003Z,62.61
2022-08-10T04:35:01.629Z,62.57
2022-08-10T04:38:31.064Z,62.66
2022-08-10T04:41:58.978Z,62.61
2022-08-10T04:45:49.612Z,62.72
2022-08-10T04:49:53.876Z,62.61
2022-08-10T04:53:00.668Z,62.66
2022-08-10T04:56:33.327Z,62.82
2022-08-10T05:00:00.390Z,63.11
2022-08-10T05:03:27.416Z,63.06
2022-08-10T05:06:54.755Z,63.24
2022-08-10T05:10:21.816Z,63.34
2022-08-10T05:13:48.834Z,63.25
2022-08-10T05:17:19.768Z,63.47
2022-08-10T05:20:50.173Z,63.48
2022-08-10T05:24:17.612Z,63.51
2022-08-10T05:27:45.802Z,63.50
2022-08-10T05:31:14.715Z,63.39
2022-08-10T05:34:51.342Z,63.40
2022-08-10T05:38:19.552Z,63.34
2022-08-10T05:41:51.091Z,63.38
2022-08-10T05:45:25.961Z,63.43
2022-08-10T05:48:56.617Z,63.37
2022-08-10T05:52:28.149Z,63.43
2022-08-10T05:55:55.879Z,63.41
2022-08-10T06:00:12.612Z,63.50
2022-08-10T06:03:12.517Z,63.52
2022-08-10T06:06:40.554Z,63.42
2022-08-10T06:10:10.719Z,63.42
2022-08-10T06:13:59.736Z,63.44
2022-08-10T06:17:42.436Z,63.45
2022-08-10T06:21:10.239Z,63.43
2022-08-10T06:25:04.582Z,63.37
2022-08-10T06:28:30.075Z,63.14
2022-08-10T06:31:59.044Z,63.10
2022-08-10T06:35:28.969Z,62.93
2022-08-10T06:39:16.773Z,62.82
2022-08-10T06:42:51.838Z,62.75
2022-08-10T06:46:21.934Z,62.70
2022-08-10T06:49:51.037Z,62.56
2022-08-10T06:53:22.654Z,62.42
2022-08-10T06:57:16.545Z,62.41
2022-08-10T07:00:44.520Z,62.38
2022-08-10T07:04:19.859Z,62.35
2022-08-10T07:08:03.311Z,62.31
2022-08-10T07:11:31.867Z,62.04
2022-08-10T07:15:03.777Z,61.93
2022-08-10T07:18:35.769Z,61.64
2022-08-10T07:22:05.142Z,61.53
2022-08-10T07:25:39.122Z,61.55
2022-08-10T07:29:09.190Z,61.41
2022-08-10T07:32:57.187Z,61.13
2022-08-10T07:36:26.930Z,60.94
2022-08-10T07:40:02.608Z,61.00
2022-08-10T07:43:35.861Z,60.86
2022-08-10T07:47:07.697Z,60.60
2022-08-10T07:50:36.144Z,60.43
2022-08-10T07:54:06.478Z,60.38
2022-08-10T07:57:39.999Z,60.35
2022-08-10T08:01:07.684Z,60.10
2022-08-10T08:04:39.419Z,59.96
2022-08-10T08:08:08.705Z,59.90
2022-08-10T08:11:38.075Z,59.74
2022-08-10T08:16:18.013Z,59.49
2022-08-10T08:24:09.976Z,58.79
2022-08-10T08:26:35.108Z,58.19
2022-08-10T08:30:03.079Z,58.04
2022-08-10T08:33:41.540Z,58.08
2022-08-10T08:38:29.781Z,57.98
2022-08-10T08:41:22.473Z,57.84
2022-08-10T08:45:04.912Z,57.60
2022-08-10T08:48:53.372Z,57.38
2022-08-10T08:52:37.291Z,57.03
2022-08-10T08:56:10.489Z,56.73
2022-08-10T09:00:02.248Z,56.82
2022-08-10T09:03:46.969Z,56.76
2022-08-10T09:07:59.739Z,56.43
2022-08-10T09:11:40.219Z,56.20
2022-08-10T09:15:09.744Z,55.73
2022-08-10T09:19:04.011Z,55.07
2022-08-10T09:22:40.635Z,54.77
2022-08-10T09:26:15.664Z,54.55
2022-08-10T09:29:49.060Z,54.34
2022-08-10T09:36:22.956Z,53.91
2022-08-10T09:37:14.907Z,53.63
2022-08-10T09:41:03.021Z,53.32
2022-08-10T09:44:58.081Z,53.01
2022-08-10T09:48:33.895Z,52.70
2022-08-10T09:52:11.749Z,52.55
2022-08-10T09:56:18.537Z,52.46
2022-08-10T10:00:00.002Z,52.14
2022-08-10T10:03:40.429Z,51.89
2022-08-10T10:07:10.873Z,51.25
2022-08-10T10:10:48.132Z,50.64
2022-08-10T10:14:24.258Z,50.06
2022-08-10T10:18:11.276Z,49.52
2022-08-10T10:21:54.681Z,49.40
2022-08-10T10:25:42.724Z,49.77
2022-08-10T10:29:56.608Z,49.89
2022-08-10T10:33:19.983Z,49.50
2022-08-10T10:36:49.118Z,49.21
2022-08-10T10:40:19.371Z,49.22
2022-08-10T10:43:58.266Z,48.73
2022-08-10T10:47:47.892Z,48.61
2022-08-10T10:51:23.944Z,48.65
2022-08-10T10:55:14.520Z,48.06
2022-08-10T10:58:49.347Z,47.70
2022-08-10T11:02:32.889Z,47.05
2022-08-10T11:06:11.660Z,46.43
2022-08-10T11:10:06.089Z,46.41
2022-08-10T11:14:24.500Z,46.05
2022-08-10T11:17:35.552Z,46.43
2022-08-10T11:21:13.995Z,45.92
2022-08-10T11:24:54.266Z,45.85
2022-08-10T11:28:31.061Z,45.57
2022-08-10T11:32:04.441Z,44.92
2022-08-10T11:35:45.131Z,44.61
2022-08-10T11:39:20.851Z,44.92
2022-08-10T11:43:01.271Z,44.80
2022-08-10T11:46:38.831Z,44.60
2022-08-10T11:50:13.521Z,44.30
2022-08-10T11:53:53.010Z,44.14
2022-08-10T11:57:54.422Z,43.76
2022-08-10T12:01:28.318Z,43.58
2022-08-10T12:05:03.871Z,42.71
2022-08-10T12:10:04.462Z,42.63
2022-08-10T12:12:22.397Z,42.37
2022-08-10T12:16:05.117Z,41.97
2022-08-10T12:20:01.652Z,41.86
2022-08-10T12:23:40.627Z,41.72
2022-08-10T12:27:19.611Z,41.52
2022-08-10T12:30:57.272Z,41.65
2022-08-10T12:34:36.208Z,42.07
2022-08-10T12:38:17.626Z,41.48
2022-08-10T12:41:53.158Z,40.99
2022-08-10T12:45:33.270Z,40.66
2022-08-10T12:49:12.206Z,40.15
2022-08-10T12:52:50.053Z,39.92
2022-08-10T12:56:27.715Z,39.67
2022-08-10T13:00:00.470Z,39.15
2022-08-10T13:04:20.822Z,38.91
2022-08-10T13:08:03.919Z,38.81
2022-08-10T13:12:34.151Z,38.78
2022-08-10T13:15:45.680Z,39.06
2022-08-10T13:19:05.070Z,38.41
2022-08-10T13:22:36.994Z,38.35
2022-08-10T13:26:07.495Z,37.93
2022-08-10T13:29:39.276Z,37.38
2022-08-10T13:33:13.946Z,37.11
2022-08-10T13:36:45.676Z,36.50
2022-08-10T13:40:16.875Z,36.51
2022-08-10T13:43:54.199Z,36.16
2022-08-10T13:47:29.019Z,35.74
2022-08-10T13:51:03.819Z,35.24
2022-08-10T13:54:41.907Z,34.92
2022-08-10T13:58:15.764Z,34.79
2022-08-10T14:01:47.760Z,34.85
2022-08-10T14:05:28.586Z,34.69
2022-08-10T14:09:05.460Z,34.44
2022-08-10T14:12:36.573Z,34.32
2022-08-10T14:16:10.568Z,34.35
2022-08-10T14:19:44.388Z,34.41
2022-08-10T14:23:21.700Z,34.11
2022-08-10T14:26:51.777Z,34.08
2022-08-10T14:30:20.912Z,33.26
2022-08-10T14:33:54.921Z,33.31
2022-08-10T14:37:26.118Z,33.02
2022-08-10T14:40:56.896Z,32.41
2022-08-10T14:44:26.538Z,32.48
2022-08-10T14:48:01.467Z,32.42
2022-08-10T14:51:44.513Z,32.23
2022-08-10T14:55:19.545Z,31.96
2022-08-10T14:59:06.054Z,31.62
2022-08-10T15:02:52.940Z,31.45
2022-08-10T15:06:30.776Z,31.09
2022-08-10T15:10:24.004Z,30.80
2022-08-10T15:14:14.805Z,30.58
2022-08-10T15:17:48.660Z,30.02
2022-08-10T15:21:20.571Z,30.04
2022-08-10T15:25:05.291Z,30.00
2022-08-10T15:29:23.761Z,29.89
2022-08-10T15:32:41.440Z,29.98
2022-08-10T15:36:32.683Z,30.17
2022-08-10T15:40:24.805Z,29.88
2022-08-10T15:43:59.537Z,29.94
2022-08-10T15:47:45.911Z,29.97
2022-08-10T15:51:54.209Z,30.31
2022-08-10T15:55:43.191Z,30.38
2022-08-10T15:59:18.408Z,30.18
2022-08-10T16:02:53.004Z,30.36
2022-08-10T16:06:30.252Z,30.51
2022-08-10T16:10:23.980Z,30.53
2022-08-10T16:14:01.337Z,30.73
2022-08-10T16:17:29.924Z,30.88
2022-08-10T16:21:21.669Z,30.95
2022-08-10T16:24:50.976Z,31.10
2022-08-10T16:28:19.972Z,31.30
2022-08-10T16:31:55.245Z,31.64
2022-08-10T16:35:23.802Z,31.88
2022-08-10T16:38:53.895Z,31.99
2022-08-10T16:42:23.871Z,32.09
2022-08-10T16:45:54.802Z,32.07
2022-08-10T16:49:24.515Z,32.18
2022-08-10T16:52:54.806Z,32.35
2022-08-10T16:56:31.594Z,32.56
2022-08-10T17:00:00.356Z,32.72
2022-08-10T17:04:07.891Z,32.99
2022-08-10T17:07:30.572Z,33.01
2022-08-10T17:11:00.936Z,33.03
2022-08-10T17:14:34.795Z,33.27
2022-08-10T17:18:09.853Z,33.51
2022-08-10T17:21:51.503Z,33.36
2022-08-10T17:25:23.998Z,33.65
2022-08-10T17:29:53.189Z,33.73
2022-08-10T17:33:04.917Z,33.97
2022-08-10T17:36:37.599Z,34.20
2022-08-10T17:40:09.154Z,34.35
2022-08-10T17:44:00.763Z,34.37
2022-08-10T17:47:27.776Z,34.60
2022-08-10T17:50:59.483Z,34.77
2022-08-10T17:54:31.633Z,35.03
2022-08-10T17:58:01.884Z,35.08
2022-08-10T18:01:41.346Z,35.32
2022-08-10T18:05:20.948Z,35.58
2022-08-10T18:09:00.742Z,35.72
2022-08-10T18:12:36.528Z,35.75
2022-08-10T18:16:07.755Z,35.90
2022-08-10T18:19:38.126Z,36.08
2022-08-10T18:23:06.632Z,36.32
2022-08-10T18:26:39.483Z,36.48
2022-08-10T18:30:10.682Z,36.60
2022-08-10T18:33:44.455Z,36.83
2022-08-10T18:37:20.250Z,36.99
2022-08-10T18:40:59.956Z,37.33
2022-08-10T18:44:34.528Z,37.52
2022-08-10T18:48:08.693Z,37.76
2022-08-10T18:51:46.599Z,38.10
2022-08-10T18:55:24.415Z,38.29
2022-08-10T18:59:10.662Z,38.52
2022-08-10T19:02:56.485Z,38.93
2022-08-10T19:06:56.211Z,39.32
2022-08-10T19:10:36.594Z,39.67
2022-08-10T19:14:09.923Z,39.95
2022-08-10T19:18:02.839Z,40.28
2022-08-10T19:21:39.262Z,40.57
2022-08-10T19:25:14.532Z,40.93
2022-08-10T19:28:49.622Z,41.20
2022-08-10T19:32:29.152Z,41.47
2022-08-10T19:36:13.859Z,41.89
2022-08-10T19:40:00.941Z,42.02
2022-08-10T19:44:01.234Z,42.42
2022-08-10T19:47:33.912Z,42.70
2022-08-10T19:51:08.178Z,42.94
2022-08-10T19:54:47.374Z,43.19
2022-08-10T19:58:22.555Z,43.30
2022-08-10T20:01:55.177Z,43.63
2022-08-10T20:05:33.311Z,43.73
2022-08-10T20:09:07.021Z,44.07
2022-08-10T20:12:43.063Z,44.21
2022-08-10T20:16:21.389Z,44.40
2022-08-10T20:19:55.488Z,44.66
2022-08-10T20:23:26.952Z,44.77
2022-08-10T20:27:13.144Z,44.91
2022-08-10T20:30:54.811Z,45.21
2022-08-10T20:34:26.179Z,45.41
2022-08-10T20:38:03.650Z,45.50
2022-08-10T20:41:43.945Z,45.82
2022-08-10T20:45:22.993Z,45.98
2022-08-10T20:48:58.842Z,46.17
2022-08-10T20:52:30.894Z,46.28
2022-08-10T20:56:10.575Z,46.65
2022-08-10T21:00:04.473Z,46.78
2022-08-10T21:03:51.534Z,46.93
2022-08-10T21:08:00.356Z,47.21
2022-08-10T21:11:39.542Z,47.37
2022-08-10T21:15:22.697Z,47.55
2022-08-10T21:19:01.656Z,47.75
2022-08-10T21:22:35.213Z,47.96
2022-08-10T21:26:10.227Z,48.10
2022-08-10T21:29:55.835Z,48.23
2022-08-10T21:33:35.083Z,48.45
2022-08-10T21:37:09.262Z,48.56
2022-08-10T21:40:42.497Z,48.78
2022-08-10T21:45:08.175Z,48.95
2022-08-10T21:49:23.058Z,49.17
2022-08-10T21:53:18.682Z,49.25
2022-08-10T21:57:09.912Z,49.48
2022-08-10T22:05:04.792Z,49.98
2022-08-10T22:08:57.672Z,50.00
2022-08-10T22:12:48.889Z,50.30
2022-08-10T22:16:48.480Z,50.57
2022-08-10T22:20:42.988Z,50.84
2022-08-10T22:28:48.560Z,51.24
2022-08-10T22:31:29.132Z,50.95
2022-08-10T22:32:42.988Z,51.43
2022-08-10T22:40:32.156Z,51.77
2022-08-10T22:44:27.366Z,52.04
2022-08-10T22:48:17.020Z,52.16
2022-08-10T22:52:00.105Z,52.27
2022-08-10T22:55:50.000Z,52.56
2022-08-10T22:59:27.593Z,52.55
2022-08-10T23:03:02.408Z,52.75
2022-08-10T23:06:32.574Z,52.89
2022-08-10T23:10:05.983Z,53.08
2022-08-10T23:13:37.223Z,53.26
2022-08-10T23:18:01.072Z,53.33
2022-08-10T23:21:19.972Z,53.61
2022-08-10T23:24:57.758Z,53.63
2022-08-10T23:28:38.780Z,53.80
2022-08-10T23:32:16.190Z,54.00
2022-08-10T23:36:05.614Z,54.13
2022-08-10T23:39:42.810Z,54.28
2022-08-10T23:43:16.871Z,54.44
2022-08-10T23:46:46.760Z,54.36
2022-08-10T23:50:17.540Z,54.59
2022-08-10T23:53:48.199Z,54.72
2022-08-10T23:57:20.697Z,54.76
